sensor_id;sensor_type;location;lat;lon;timestamp;pressure;altitude;pressure_sealevel;temperature;humidity
76074;BME280;64776;42.636;24.358;2024-03-08T00:02:13;90043.34;;;2.35;100.00
76074;BME280;64776;42.636;24.358;2024-03-08T00:05:14;90037.59;;;2.28;100.00
76074;BME280;64776;42.636;24.358;2024-03-08T00:08:15;90045.16;;;2.26;100.00
76074;BME280;64776;42.636;24.358;2024-03-08T00:11:18;90044.75;;;2.27;100.00
76074;BME280;64776;42.636;24.358;2024-03-08T00:14:19;90051.81;;;2.18;100.00
76074;BME280;64776;42.636;24.358;2024-03-08T00:17:20;90046.00;;;2.23;100.00
76074;BME280;64776;42.636;24.358;2024-03-08T00:20:20;90048.13;;;2.28;100.00
76074;BME280;64776;42.636;24.358;2024-03-08T00:23:21;90049.38;;;2.36;100.00
76074;BME280;64776;42.636;24.358;2024-03-08T00:26:23;90044.22;;;2.32;100.00
76074;BME280;64776;42.636;24.358;2024-03-08T00:29:24;90044.44;;;2.13;100.00
76074;BME280;64776;42.636;24.358;2024-03-08T00:32:25;90038.66;;;2.05;100.00
76074;BME280;64776;42.636;24.358;2024-03-08T00:35:26;90040.66;;;2.14;100.00
76074;BME280;64776;42.636;24.358;2024-03-08T00:38:26;90052.22;;;2.16;100.00
76074;BME280;64776;42.636;24.358;2024-03-08T00:41:28;90047.69;;;2.29;100.00
76074;BME280;64776;42.636;24.358;2024-03-08T00:44:29;90043.47;;;2.32;100.00
76074;BME280;64776;42.636;24.358;2024-03-08T00:47:30;90053.88;;;2.35;100.00
76074;BME280;64776;42.636;24.358;2024-03-08T00:50:31;90049.88;;;2.43;100.00
76074;BME280;64776;42.636;24.358;2024-03-08T00:53:32;90040.94;;;2.41;100.00
76074;BME280;64776;42.636;24.358;2024-03-08T00:56:40;90038.94;;;2.45;100.00
76074;BME280;64776;42.636;24.358;2024-03-08T00:59:41;90040.09;;;2.31;100.00
76074;BME280;64776;42.636;24.358;2024-03-08T01:02:43;90026.53;;;2.20;100.00
76074;BME280;64776;42.636;24.358;2024-03-08T01:05:44;90029.56;;;2.19;100.00
76074;BME280;64776;42.636;24.358;2024-03-08T01:08:45;90019.28;;;2.12;100.00
76074;BME280;64776;42.636;24.358;2024-03-08T01:11:47;90023.50;;;2.09;100.00
76074;BME280;64776;42.636;24.358;2024-03-08T01:14:48;90012.75;;;2.04;100.00
76074;BME280;64776;42.636;24.358;2024-03-08T01:17:48;90014.97;;;2.05;100.00
76074;BME280;64776;42.636;24.358;2024-03-08T01:20:49;90018.41;;;2.15;100.00
76074;BME280;64776;42.636;24.358;2024-03-08T01:23:50;90021.78;;;2.03;100.00
76074;BME280;64776;42.636;24.358;2024-03-08T01:26:52;90011.16;;;2.06;100.00
76074;BME280;64776;42.636;24.358;2024-03-08T01:29:53;90014.97;;;2.05;100.00
76074;BME280;64776;42.636;24.358;2024-03-08T01:32:54;90021.69;;;2.19;100.00
76074;BME280;64776;42.636;24.358;2024-03-08T01:35:54;90014.97;;;2.18;100.00
76074;BME280;64776;42.636;24.358;2024-03-08T01:38:55;90018.41;;;2.15;100.00
76074;BME280;64776;42.636;24.358;2024-03-08T01:41:57;90020.09;;;1.84;100.00
76074;BME280;64776;42.636;24.358;2024-03-08T01:44:58;90021.06;;;1.90;100.00
76074;BME280;64776;42.636;24.358;2024-03-08T01:47:59;90028.41;;;1.70;100.00
76074;BME280;64776;42.636;24.358;2024-03-08T01:51:00;90027.91;;;1.75;100.00
76074;BME280;64776;42.636;24.358;2024-03-08T01:54:02;90018.31;;;1.68;100.00
76074;BME280;64776;42.636;24.358;2024-03-08T01:57:05;90019.78;;;1.69;100.00
76074;BME280;64776;42.636;24.358;2024-03-08T02:00:06;90014.00;;;1.61;100.00
76074;BME280;64776;42.636;24.358;2024-03-08T02:03:07;90010.28;;;1.59;100.00
76074;BME280;64776;42.636;24.358;2024-03-08T02:06:08;90012.91;;;1.46;100.00
76074;BME280;64776;42.636;24.358;2024-03-08T02:09:09;90013.75;;;1.43;100.00
76074;BME280;64776;42.636;24.358;2024-03-08T02:12:11;90013.22;;;1.36;100.00
76074;BME280;64776;42.636;24.358;2024-03-08T02:15:12;90015.03;;;1.51;100.00
76074;BME280;64776;42.636;24.358;2024-03-08T02:18:13;90020.50;;;1.70;100.00
76074;BME280;64776;42.636;24.358;2024-03-08T02:21:17;90014.22;;;1.80;100.00
76074;BME280;64776;42.636;24.358;2024-03-08T02:24:18;90018.66;;;1.83;100.00
76074;BME280;64776;42.636;24.358;2024-03-08T02:27:23;90013.28;;;1.86;100.00
76074;BME280;64776;42.636;24.358;2024-03-08T02:30:24;90013.28;;;1.86;100.00
76074;BME280;64776;42.636;24.358;2024-03-08T02:33:26;90003.19;;;1.85;100.00
76074;BME280;64776;42.636;24.358;2024-03-08T02:36:28;90014.66;;;1.91;100.00
76074;BME280;64776;42.636;24.358;2024-03-08T02:39:29;90014.22;;;2.05;100.00
76074;BME280;64776;42.636;24.358;2024-03-08T02:42:30;90010.53;;;2.15;100.00
76074;BME280;64776;42.636;24.358;2024-03-08T02:45:31;90014.03;;;2.12;100.00
76074;BME280;64776;42.636;24.358;2024-03-08T02:48:31;90010.22;;;2.13;100.00
76074;BME280;64776;42.636;24.358;2024-03-08T02:51:34;90020.53;;;2.20;100.00
76074;BME280;64776;42.636;24.358;2024-03-08T02:54:34;90019.47;;;2.17;100.00
76074;BME280;64776;42.636;24.358;2024-03-08T02:57:35;90024.84;;;2.26;100.00
76074;BME280;64776;42.636;24.358;2024-03-08T03:00:36;90024.63;;;2.33;100.00
76074;BME280;64776;42.636;24.358;2024-03-08T03:03:37;90018.63;;;2.33;100.00
76074;BME280;64776;42.636;24.358;2024-03-08T03:06:39;90027.25;;;2.33;100.00
76074;BME280;64776;42.636;24.358;2024-03-08T03:09:40;90018.22;;;2.34;100.00
76074;BME280;64776;42.636;24.358;2024-03-08T03:12:41;90026.63;;;2.42;100.00
76074;BME280;64776;42.636;24.358;2024-03-08T03:15:41;90020.50;;;2.45;100.00
76074;BME280;64776;42.636;24.358;2024-03-08T03:18:42;90023.66;;;2.40;100.00
76074;BME280;64776;42.636;24.358;2024-03-08T03:21:44;90027.03;;;2.40;100.00
76074;BME280;64776;42.636;24.358;2024-03-08T03:24:45;90026.50;;;2.45;100.00
76074;BME280;64776;42.636;24.358;2024-03-08T03:27:46;90036.94;;;2.49;100.00
76074;BME280;64776;42.636;24.358;2024-03-08T03:30:47;90037.47;;;2.44;100.00
76074;BME280;64776;42.636;24.358;2024-03-08T03:33:48;90042.84;;;2.40;100.00
76074;BME280;64776;42.636;24.358;2024-03-08T03:36:50;90035.38;;;2.39;100.00
76074;BME280;64776;42.636;24.358;2024-03-08T03:39:50;90037.03;;;2.33;100.00
76074;BME280;64776;42.636;24.358;2024-03-08T03:42:51;90032.94;;;2.32;100.00
76074;BME280;64776;42.636;24.358;2024-03-08T03:45:52;90034.41;;;2.33;100.00
76074;BME280;64776;42.636;24.358;2024-03-08T03:48:53;90037.47;;;2.31;100.00
76074;BME280;64776;42.636;24.358;2024-03-08T03:51:55;90036.94;;;2.36;100.00
76074;BME280;64776;42.636;24.358;2024-03-08T03:54:56;90040.22;;;2.28;100.00
76074;BME280;64776;42.636;24.358;2024-03-08T03:57:57;90041.06;;;2.25;100.00
76074;BME280;64776;42.636;24.358;2024-03-08T04:00:57;90041.91;;;2.22;100.00
76074;BME280;64776;42.636;24.358;2024-03-08T04:03:58;90045.28;;;2.22;100.00
76074;BME280;64776;42.636;24.358;2024-03-08T04:07:00;90043.06;;;2.21;100.00
76074;BME280;64776;42.636;24.358;2024-03-08T04:10:01;90042.41;;;2.17;100.00
76074;BME280;64776;42.636;24.358;2024-03-08T04:13:03;90044.53;;;2.22;100.00
76074;BME280;64776;42.636;24.358;2024-03-08T04:16:04;90045.59;;;2.24;100.00
76074;BME280;64776;42.636;24.358;2024-03-08T04:19:05;90050.44;;;2.26;100.00
76074;BME280;64776;42.636;24.358;2024-03-08T04:22:07;90052.88;;;2.20;100.00
76074;BME280;64776;42.636;24.358;2024-03-08T04:25:08;90061.16;;;2.19;100.00
76074;BME280;64776;42.636;24.358;2024-03-08T04:28:09;90053.91;;;2.23;100.00
76074;BME280;64776;42.636;24.358;2024-03-08T04:31:10;90065.38;;;2.29;100.00
76074;BME280;64776;42.636;24.358;2024-03-08T04:34:11;90056.94;;;2.34;100.00
76074;BME280;64776;42.636;24.358;2024-03-08T04:37:13;90061.38;;;2.37;100.00
76074;BME280;64776;42.636;24.358;2024-03-08T04:40:14;90072.53;;;2.41;100.00
76074;BME280;64776;42.636;24.358;2024-03-08T04:43:15;90064.09;;;2.46;100.00
76074;BME280;64776;42.636;24.358;2024-03-08T04:46:15;90068.84;;;2.51;100.00
76074;BME280;64776;42.636;24.358;2024-03-08T04:49:17;90068.84;;;2.51;100.00
76074;BME280;64776;42.636;24.358;2024-03-08T04:52:19;90064.72;;;2.50;100.00
76074;BME280;64776;42.636;24.358;2024-03-08T04:55:19;90077.91;;;2.37;100.00
76074;BME280;64776;42.636;24.358;2024-03-08T04:58:21;90074.31;;;2.31;100.00
76074;BME280;64776;42.636;24.358;2024-03-08T05:01:22;90078.13;;;2.43;100.00
76074;BME280;64776;42.636;24.358;2024-03-08T05:04:24;90077.38;;;2.42;100.00
76074;BME280;64776;42.636;24.358;2024-03-08T05:07:26;90085.91;;;2.21;100.00
76074;BME280;64776;42.636;24.358;2024-03-08T05:10:27;90081.25;;;2.13;100.00
76074;BME280;64776;42.636;24.358;2024-03-08T05:13:28;90090.09;;;2.06;100.00
76074;BME280;64776;42.636;24.358;2024-03-08T05:16:29;90087.97;;;1.89;100.00
76074;BME280;64776;42.636;24.358;2024-03-08T05:19:29;90099.31;;;1.73;100.00
76074;BME280;64776;42.636;24.358;2024-03-08T05:22:31;90096.28;;;1.75;100.00
76074;BME280;64776;42.636;24.358;2024-03-08T05:25:32;90096.81;;;1.82;100.00
76074;BME280;64776;42.636;24.358;2024-03-08T05:28:33;90104.47;;;1.77;100.00
76074;BME280;64776;42.636;24.358;2024-03-08T05:31:39;90111.84;;;1.82;100.00
76074;BME280;64776;42.636;24.358;2024-03-08T05:34:43;90113.03;;;1.93;100.00
76074;BME280;64776;42.636;24.358;2024-03-08T05:37:45;90110.47;;;1.90;100.00
76074;BME280;64776;42.636;24.358;2024-03-08T05:40:46;90102.38;;;1.84;100.00
76074;BME280;64776;42.636;24.358;2024-03-08T05:43:47;90102.50;;;1.93;100.00
76074;BME280;64776;42.636;24.358;2024-03-08T05:46:48;90107.78;;;1.93;100.00
76074;BME280;64776;42.636;24.358;2024-03-08T05:49:48;90115.47;;;2.13;100.00
76074;BME280;64776;42.636;24.358;2024-03-08T05:52:50;90118.22;;;2.22;100.00
76074;BME280;64776;42.636;24.358;2024-03-08T05:55:51;90121.47;;;2.13;100.00
76074;BME280;64776;42.636;24.358;2024-03-08T05:58:52;90122.63;;;2.25;100.00
76074;BME280;64776;42.636;24.358;2024-03-08T06:01:53;90121.81;;;2.28;100.00
76074;BME280;64776;42.636;24.358;2024-03-08T06:04:53;90124.13;;;2.26;100.00
76074;BME280;64776;42.636;24.358;2024-03-08T06:07:55;90122.44;;;2.32;100.00
76074;BME280;64776;42.636;24.358;2024-03-08T06:10:56;90123.72;;;2.40;100.00
76074;BME280;64776;42.636;24.358;2024-03-08T06:13:57;90126.88;;;2.47;100.00
76074;BME280;64776;42.636;24.358;2024-03-08T06:16:58;90136.75;;;2.43;100.00
76074;BME280;64776;42.636;24.358;2024-03-08T06:19:59;90131.72;;;2.24;100.00
76074;BME280;64776;42.636;24.358;2024-03-08T06:23:01;90129.28;;;2.42;100.00
76074;BME280;64776;42.636;24.358;2024-03-08T06:26:02;90126.75;;;2.26;100.00
76074;BME280;64776;42.636;24.358;2024-03-08T06:29:02;90132.78;;;2.26;100.00
76074;BME280;64776;42.636;24.358;2024-03-08T06:32:04;90137.72;;;2.24;100.00
76074;BME280;64776;42.636;24.358;2024-03-08T06:35:06;90142.88;;;2.28;100.00
76074;BME280;64776;42.636;24.358;2024-03-08T06:38:08;90148.16;;;2.40;100.00
76074;BME280;64776;42.636;24.358;2024-03-08T06:41:09;90143.50;;;2.32;100.00
76074;BME280;64776;42.636;24.358;2024-03-08T06:44:10;90149.09;;;2.34;100.00
76074;BME280;64776;42.636;24.358;2024-03-08T06:47:10;90147.84;;;2.51;100.00
76074;BME280;64776;42.636;24.358;2024-03-08T06:50:11;90149.63;;;2.54;100.00
76074;BME280;64776;42.636;24.358;2024-03-08T06:53:14;90160.38;;;2.60;100.00
76074;BME280;64776;42.636;24.358;2024-03-08T06:56:15;90156.97;;;2.34;97.98
76074;BME280;64776;42.636;24.358;2024-03-08T06:59:15;90161.44;;;2.37;97.92
76074;BME280;64776;42.636;24.358;2024-03-08T07:02:16;90164.06;;;2.37;99.37
76074;BME280;64776;42.636;24.358;2024-03-08T07:05:17;90168.59;;;2.49;100.00
76074;BME280;64776;42.636;24.358;2024-03-08T07:08:19;90169.84;;;2.57;100.00
76074;BME280;64776;42.636;24.358;2024-03-08T07:11:20;90163.22;;;2.78;99.63
76074;BME280;64776;42.636;24.358;2024-03-08T07:14:21;90167.09;;;2.61;98.80
76074;BME280;64776;42.636;24.358;2024-03-08T07:17:22;90168.78;;;2.42;97.24
76074;BME280;64776;42.636;24.358;2024-03-08T07:20:23;90170.22;;;2.18;96.45
76074;BME280;64776;42.636;24.358;2024-03-08T07:23:25;90168.88;;;2.26;96.77
76074;BME280;64776;42.636;24.358;2024-03-08T07:26:26;90160.97;;;2.26;95.19
76074;BME280;64776;42.636;24.358;2024-03-08T07:29:26;90165.84;;;2.40;95.83
76074;BME280;64776;42.636;24.358;2024-03-08T07:32:27;90167.19;;;2.32;92.98
76074;BME280;64776;42.636;24.358;2024-03-08T07:35:28;90168.13;;;2.25;93.79
76074;BME280;64776;42.636;24.358;2024-03-08T07:38:30;90172.16;;;2.55;92.79
76074;BME280;64776;42.636;24.358;2024-03-08T07:41:31;90182.81;;;2.77;93.25
76074;BME280;64776;42.636;24.358;2024-03-08T07:44:32;90172.25;;;2.64;90.28
76074;BME280;64776;42.636;24.358;2024-03-08T07:47:32;90172.91;;;2.93;90.00
76074;BME280;64776;42.636;24.358;2024-03-08T07:50:33;90170.97;;;3.32;88.90
76074;BME280;64776;42.636;24.358;2024-03-08T07:53:35;90171.69;;;3.66;90.37
76074;BME280;64776;42.636;24.358;2024-03-08T07:56:37;90168.97;;;3.91;87.52
76074;BME280;64776;42.636;24.358;2024-03-08T07:59:38;90174.06;;;4.07;86.42
76074;BME280;64776;42.636;24.358;2024-03-08T08:02:39;90176.28;;;4.31;87.94
76074;BME280;64776;42.636;24.358;2024-03-08T08:05:39;90179.38;;;4.17;86.25
76074;BME280;64776;42.636;24.358;2024-03-08T08:08:43;90172.34;;;4.13;84.38
76074;BME280;64776;42.636;24.358;2024-03-08T08:11:44;90171.81;;;4.06;84.93
76074;BME280;64776;42.636;24.358;2024-03-08T08:14:45;90179.88;;;4.24;84.91
76074;BME280;64776;42.636;24.358;2024-03-08T08:17:46;90179.22;;;4.33;85.93
76074;BME280;64776;42.636;24.358;2024-03-08T08:20:47;90177.09;;;4.49;86.14
76074;BME280;64776;42.636;24.358;2024-03-08T08:23:49;90177.81;;;4.50;82.89
76074;BME280;64776;42.636;24.358;2024-03-08T08:26:50;90183.13;;;4.28;81.95
76074;BME280;64776;42.636;24.358;2024-03-08T08:29:52;90177.25;;;4.24;82.08
76074;BME280;64776;42.636;24.358;2024-03-08T08:32:52;90175.16;;;4.19;84.45
76074;BME280;64776;42.636;24.358;2024-03-08T08:35:53;90184.34;;;4.14;84.46
76074;BME280;64776;42.636;24.358;2024-03-08T08:38:55;90179.66;;;4.09;85.13
76074;BME280;64776;42.636;24.358;2024-03-08T08:41:56;90184.97;;;3.97;86.48
76074;BME280;64776;42.636;24.358;2024-03-08T08:44:57;90180.81;;;3.87;84.47
76074;BME280;64776;42.636;24.358;2024-03-08T08:47:58;90182.00;;;3.73;85.81
76074;BME280;64776;42.636;24.358;2024-03-08T08:50:58;90175.03;;;4.01;86.83
76074;BME280;64776;42.636;24.358;2024-03-08T08:54:00;90172.47;;;4.10;84.78
76074;BME280;64776;42.636;24.358;2024-03-08T08:57:01;90171.31;;;4.63;87.13
76074;BME280;64776;42.636;24.358;2024-03-08T09:00:02;90169.66;;;4.57;84.33
76074;BME280;64776;42.636;24.358;2024-03-08T09:03:04;90166.25;;;4.56;84.39
76074;BME280;64776;42.636;24.358;2024-03-08T09:06:09;90167.63;;;4.39;84.86
76074;BME280;64776;42.636;24.358;2024-03-08T09:09:11;90166.44;;;4.09;83.46
76074;BME280;64776;42.636;24.358;2024-03-08T09:12:12;90169.97;;;4.37;84.54
76074;BME280;64776;42.636;24.358;2024-03-08T09:15:13;90163.22;;;4.97;80.33
76074;BME280;64776;42.636;24.358;2024-03-08T09:18:19;90161.38;;;5.25;79.13
76074;BME280;64776;42.636;24.358;2024-03-08T09:21:20;90160.22;;;5.35;77.02
76074;BME280;64776;42.636;24.358;2024-03-08T09:24:22;90162.03;;;5.65;75.90
76074;BME280;64776;42.636;24.358;2024-03-08T09:27:23;90163.25;;;5.92;75.41
76074;BME280;64776;42.636;24.358;2024-03-08T09:30:23;90162.53;;;5.91;73.23
76074;BME280;64776;42.636;24.358;2024-03-08T09:33:24;90158.84;;;6.07;71.76
76074;BME280;64776;42.636;24.358;2024-03-08T09:36:25;90173.41;;;6.02;74.01
76074;BME280;64776;42.636;24.358;2024-03-08T09:39:27;90172.31;;;5.54;75.36
76074;BME280;64776;42.636;24.358;2024-03-08T09:42:28;90173.41;;;5.84;74.44
76074;BME280;64776;42.636;24.358;2024-03-08T09:45:32;90168.69;;;5.88;76.79
76074;BME280;64776;42.636;24.358;2024-03-08T09:48:36;90172.47;;;5.69;76.83
76074;BME280;64776;42.636;24.358;2024-03-08T09:51:38;90168.94;;;5.63;75.61
76074;BME280;64776;42.636;24.358;2024-03-08T09:54:40;90176.56;;;5.43;73.98
76074;BME280;64776;42.636;24.358;2024-03-08T09:57:42;90180.88;;;5.10;74.13
76074;BME280;64776;42.636;24.358;2024-03-08T10:00:43;90176.53;;;5.25;75.16
76074;BME280;64776;42.636;24.358;2024-03-08T10:03:47;90187.88;;;5.43;75.55
76074;BME280;64776;42.636;24.358;2024-03-08T10:06:48;90178.66;;;5.66;76.87
76074;BME280;64776;42.636;24.358;2024-03-08T10:09:52;90186.13;;;5.49;78.04
76074;BME280;64776;42.636;24.358;2024-03-08T10:12:52;90185.38;;;5.49;77.95
76074;BME280;64776;42.636;24.358;2024-03-08T10:15:53;90193.63;;;5.42;77.03
76074;BME280;64776;42.636;24.358;2024-03-08T10:18:56;90180.47;;;5.20;77.62
76074;BME280;64776;42.636;24.358;2024-03-08T10:21:57;90184.59;;;5.30;80.88
76074;BME280;64776;42.636;24.358;2024-03-08T10:25:00;90177.44;;;5.40;83.11
76074;BME280;64776;42.636;24.358;2024-03-08T10:28:03;90179.94;;;5.52;84.13
76074;BME280;64776;42.636;24.358;2024-03-08T10:31:04;90179.09;;;5.55;83.58
76074;BME280;64776;42.636;24.358;2024-03-08T10:34:05;90170.41;;;5.46;83.21
76074;BME280;64776;42.636;24.358;2024-03-08T10:37:07;90181.53;;;5.41;83.71
76074;BME280;64776;42.636;24.358;2024-03-08T10:40:18;90170.41;;;5.55;83.77
76074;BME280;64776;42.636;24.358;2024-03-08T10:43:23;90168.34;;;5.59;83.64
76074;BME280;64776;42.636;24.358;2024-03-08T10:46:30;90166.88;;;5.40;84.67
76074;BME280;64776;42.636;24.358;2024-03-08T10:49:38;90168.50;;;5.55;84.09
76074;BME280;64776;42.636;24.358;2024-03-08T10:52:40;90168.66;;;5.70;85.55
76074;BME280;64776;42.636;24.358;2024-03-08T10:55:42;90165.84;;;5.55;88.57
76074;BME280;64776;42.636;24.358;2024-03-08T10:58:44;90158.34;;;5.54;90.05
76074;BME280;64776;42.636;24.358;2024-03-08T11:01:46;90167.69;;;5.19;90.42
76074;BME280;64776;42.636;24.358;2024-03-08T11:04:48;90157.38;;;5.12;93.02
76074;BME280;64776;42.636;24.358;2024-03-08T11:07:50;90162.81;;;5.08;93.28
76074;BME280;64776;42.636;24.358;2024-03-08T11:10:53;90171.41;;;4.90;94.05
76074;BME280;64776;42.636;24.358;2024-03-08T11:13:55;90160.13;;;4.59;94.70
76074;BME280;64776;42.636;24.358;2024-03-08T11:16:56;90164.69;;;4.37;97.42
76074;BME280;64776;42.636;24.358;2024-03-08T11:19:58;90159.09;;;4.35;99.41
76074;BME280;64776;42.636;24.358;2024-03-08T11:23:00;90157.00;;;4.52;98.26
76074;BME280;64776;42.636;24.358;2024-03-08T11:26:03;90163.69;;;4.65;96.99
76074;BME280;64776;42.636;24.358;2024-03-08T11:29:35;90167.16;;;4.53;96.38
76074;BME280;64776;42.636;24.358;2024-03-08T11:32:35;90170.63;;;4.50;95.80
76074;BME280;64776;42.636;24.358;2024-03-08T11:35:36;90162.72;;;4.50;97.20
76074;BME280;64776;42.636;24.358;2024-03-08T11:38:40;90162.03;;;4.59;95.56
76074;BME280;64776;42.636;24.358;2024-03-08T11:41:43;90168.22;;;4.65;95.16
76074;BME280;64776;42.636;24.358;2024-03-08T11:44:44;90155.22;;;4.49;96.20
76074;BME280;64776;42.636;24.358;2024-03-08T11:47:44;90166.03;;;4.42;96.89
76074;BME280;64776;42.636;24.358;2024-03-08T11:50:45;90163.25;;;4.45;96.97
76074;BME280;64776;42.636;24.358;2024-03-08T11:53:48;90162.66;;;4.41;96.10
76074;BME280;64776;42.636;24.358;2024-03-08T11:56:53;90162.06;;;4.37;95.91
76074;BME280;64776;42.636;24.358;2024-03-08T11:59:54;90156.00;;;4.28;97.12
76074;BME280;64776;42.636;24.358;2024-03-08T12:03:02;90152.41;;;4.43;97.07
76074;BME280;64776;42.636;24.358;2024-03-08T12:06:04;90154.72;;;4.41;94.77
76074;BME280;64776;42.636;24.358;2024-03-08T12:09:08;90157.13;;;4.48;93.90
76074;BME280;64776;42.636;24.358;2024-03-08T12:12:10;90159.78;;;4.48;94.69
76074;BME280;64776;42.636;24.358;2024-03-08T12:15:11;90163.88;;;4.49;94.83
76074;BME280;64776;42.636;24.358;2024-03-08T12:18:12;90162.09;;;4.46;94.22
76074;BME280;64776;42.636;24.358;2024-03-08T12:21:13;90161.94;;;4.41;93.43
76074;BME280;64776;42.636;24.358;2024-03-08T12:24:15;90162.66;;;4.41;93.83
76074;BME280;64776;42.636;24.358;2024-03-08T12:27:21;90158.56;;;4.40;93.72
76074;BME280;64776;42.636;24.358;2024-03-08T12:30:23;90163.69;;;4.44;93.97
76074;BME280;64776;42.636;24.358;2024-03-08T12:33:24;90164.16;;;4.42;93.92
76074;BME280;64776;42.636;24.358;2024-03-08T12:36:25;90161.03;;;4.35;94.11
76074;BME280;64776;42.636;24.358;2024-03-08T12:39:26;90160.53;;;4.27;94.15
76074;BME280;64776;42.636;24.358;2024-03-08T12:42:28;90157.22;;;4.36;95.00
76074;BME280;64776;42.636;24.358;2024-03-08T12:45:29;90164.09;;;4.33;95.30
76074;BME280;64776;42.636;24.358;2024-03-08T12:48:34;90154.81;;;4.29;95.36
76074;BME280;64776;42.636;24.358;2024-03-08T12:51:35;90158.81;;;4.33;95.57
76074;BME280;64776;42.636;24.358;2024-03-08T12:54:36;90154.63;;;4.23;96.76
76074;BME280;64776;42.636;24.358;2024-03-08T12:57:38;90154.91;;;4.16;97.26
76074;BME280;64776;42.636;24.358;2024-03-08T13:00:39;90159.81;;;4.05;98.01
76074;BME280;64776;42.636;24.358;2024-03-08T13:03:40;90159.31;;;3.97;97.89
76074;BME280;64776;42.636;24.358;2024-03-08T13:06:40;90161.59;;;3.86;99.85
76074;BME280;64776;42.636;24.358;2024-03-08T13:09:41;90172.69;;;3.81;98.85
76074;BME280;64776;42.636;24.358;2024-03-08T13:12:43;90157.09;;;3.96;98.67
76074;BME280;64776;42.636;24.358;2024-03-08T13:15:44;90160.78;;;3.98;98.43
76074;BME280;64776;42.636;24.358;2024-03-08T13:18:45;90157.47;;;3.85;98.65
76074;BME280;64776;42.636;24.358;2024-03-08T13:22:04;90158.94;;;3.86;99.71
76074;BME280;64776;42.636;24.358;2024-03-08T13:25:06;90168.88;;;3.82;99.58
76074;BME280;64776;42.636;24.358;2024-03-08T13:28:08;90164.03;;;3.81;100.00
76074;BME280;64776;42.636;24.358;2024-03-08T13:31:09;90159.25;;;3.88;98.59
76074;BME280;64776;42.636;24.358;2024-03-08T13:34:10;90157.06;;;3.87;98.64
76074;BME280;64776;42.636;24.358;2024-03-08T13:37:11;90161.09;;;3.79;99.02
76074;BME280;64776;42.636;24.358;2024-03-08T13:40:12;90156.97;;;3.56;100.00
76074;BME280;64776;42.636;24.358;2024-03-08T13:43:14;90160.03;;;3.42;100.00
76074;BME280;64776;42.636;24.358;2024-03-08T13:46:14;90162.19;;;3.35;100.00
76074;BME280;64776;42.636;24.358;2024-03-08T13:49:15;90161.25;;;3.28;100.00
76074;BME280;64776;42.636;24.358;2024-03-08T13:52:16;90166.41;;;3.19;100.00
76074;BME280;64776;42.636;24.358;2024-03-08T13:55:17;90166.53;;;3.16;100.00
76074;BME280;64776;42.636;24.358;2024-03-08T13:58:19;90164.34;;;3.14;100.00
76074;BME280;64776;42.636;24.358;2024-03-08T14:01:20;90165.47;;;3.26;100.00
76074;BME280;64776;42.636;24.358;2024-03-08T14:04:21;90158.59;;;3.28;100.00
76074;BME280;64776;42.636;24.358;2024-03-08T14:07:22;90154.91;;;3.26;100.00
76074;BME280;64776;42.636;24.358;2024-03-08T14:10:22;90164.84;;;3.22;100.00
76074;BME280;64776;42.636;24.358;2024-03-08T14:13:25;90160.84;;;3.17;100.00
76074;BME280;64776;42.636;24.358;2024-03-08T14:16:25;90159.50;;;3.13;100.00
76074;BME280;64776;42.636;24.358;2024-03-08T14:19:26;90153.34;;;3.28;100.00
76074;BME280;64776;42.636;24.358;2024-03-08T14:22:27;90158.41;;;3.36;100.00
76074;BME280;64776;42.636;24.358;2024-03-08T14:25:28;90153.63;;;3.43;100.00
76074;BME280;64776;42.636;24.358;2024-03-08T14:28:30;90155.59;;;3.52;99.07
76074;BME280;64776;42.636;24.358;2024-03-08T14:31:31;90151.16;;;3.49;98.63
76074;BME280;64776;42.636;24.358;2024-03-08T14:34:32;90154.72;;;3.55;97.71
76074;BME280;64776;42.636;24.358;2024-03-08T14:37:35;90156.75;;;3.51;98.44
76074;BME280;64776;42.636;24.358;2024-03-08T14:40:36;90160.31;;;3.22;97.37
76074;BME280;64776;42.636;24.358;2024-03-08T14:43:38;90155.63;;;3.39;98.40
76074;BME280;64776;42.636;24.358;2024-03-08T14:46:39;90165.09;;;3.49;98.09
76074;BME280;64776;42.636;24.358;2024-03-08T14:49:40;90159.00;;;3.40;97.82
76074;BME280;64776;42.636;24.358;2024-03-08T14:52:41;90162.59;;;3.46;97.83
76074;BME280;64776;42.636;24.358;2024-03-08T14:55:42;90163.06;;;3.53;96.92
76074;BME280;64776;42.636;24.358;2024-03-08T14:58:45;90174.75;;;3.65;96.03
76074;BME280;64776;42.636;24.358;2024-03-08T15:01:46;90168.84;;;3.61;96.17
76074;BME280;64776;42.636;24.358;2024-03-08T15:04:47;90172.53;;;3.63;95.37
76074;BME280;64776;42.636;24.358;2024-03-08T15:07:48;90171.91;;;3.59;95.91
76074;BME280;64776;42.636;24.358;2024-03-08T15:10:49;90176.75;;;3.61;95.28
76074;BME280;64776;42.636;24.358;2024-03-08T15:13:51;90168.38;;;3.41;95.25
76074;BME280;64776;42.636;24.358;2024-03-08T15:16:52;90176.00;;;3.26;96.85
76074;BME280;64776;42.636;24.358;2024-03-08T15:19:52;90169.28;;;3.25;97.33
76074;BME280;64776;42.636;24.358;2024-03-08T15:22:53;90167.06;;;3.23;96.22
76074;BME280;64776;42.636;24.358;2024-03-08T15:25:54;90178.13;;;3.31;96.53
76074;BME280;64776;42.636;24.358;2024-03-08T15:28:57;90171.25;;;3.34;96.05
76074;BME280;64776;42.636;24.358;2024-03-08T15:32:00;90175.47;;;3.44;95.40
76074;BME280;64776;42.636;24.358;2024-03-08T15:35:01;90174.59;;;3.47;95.23
76074;BME280;64776;42.636;24.358;2024-03-08T15:38:02;90172.56;;;3.51;95.50
76074;BME280;64776;42.636;24.358;2024-03-08T15:41:03;90177.59;;;3.70;94.87
76074;BME280;64776;42.636;24.358;2024-03-08T15:44:05;90182.25;;;3.66;94.21
76074;BME280;64776;42.636;24.358;2024-03-08T15:47:06;90174.50;;;3.50;94.95
76074;BME280;64776;42.636;24.358;2024-03-08T15:50:08;90178.63;;;3.39;94.32
76074;BME280;64776;42.636;24.358;2024-03-08T15:53:08;90182.19;;;3.45;94.26
76074;BME280;64776;42.636;24.358;2024-03-08T15:56:09;90182.53;;;3.34;93.85